sensor_id;sensor_type;location;lat;lon;timestamp;P1;durP1;ratioP1;P2;durP2;ratioP2
58338;SDS011;68636;52.704;6.536;2024-02-04T00:00:49;20.50;;;6.32;;
58338;SDS011;68636;52.704;6.536;2024-02-04T00:03:15;17.13;;;5.18;;
58338;SDS011;68636;52.704;6.536;2024-02-04T00:05:41;20.80;;;6.07;;
58338;SDS011;68636;52.704;6.536;2024-02-04T00:08:07;21.63;;;5.32;;
58338;SDS011;68636;52.704;6.536;2024-02-04T00:10:34;23.23;;;5.32;;
58338;SDS011;68636;52.704;6.536;2024-02-04T00:13:00;19.13;;;5.40;;
58338;SDS011;68636;52.704;6.536;2024-02-04T00:15:26;20.42;;;5.57;;
58338;SDS011;68636;52.704;6.536;2024-02-04T00:17:53;21.15;;;6.63;;
58338;SDS011;68636;52.704;6.536;2024-02-04T00:20:19;26.48;;;6.30;;
58338;SDS011;68636;52.704;6.536;2024-02-04T00:22:45;20.08;;;6.00;;
58338;SDS011;68636;52.704;6.536;2024-02-04T00:25:11;21.40;;;5.85;;
58338;SDS011;68636;52.704;6.536;2024-02-04T00:27:40;23.13;;;6.22;;
58338;SDS011;68636;52.704;6.536;2024-02-04T00:30:06;23.73;;;6.75;;
58338;SDS011;68636;52.704;6.536;2024-02-04T00:32:32;20.17;;;6.53;;
58338;SDS011;68636;52.704;6.536;2024-02-04T00:34:58;25.70;;;6.75;;
58338;SDS011;68636;52.704;6.536;2024-02-04T00:37:24;24.75;;;6.90;;
58338;SDS011;68636;52.704;6.536;2024-02-04T00:39:51;18.35;;;6.72;;
58338;SDS011;68636;52.704;6.536;2024-02-04T00:42:17;24.60;;;6.18;;
58338;SDS011;68636;52.704;6.536;2024-02-04T00:44:43;20.73;;;6.30;;
58338;SDS011;68636;52.704;6.536;2024-02-04T00:47:09;16.15;;;5.45;;
58338;SDS011;68636;52.704;6.536;2024-02-04T00:49:35;20.30;;;5.72;;
58338;SDS011;68636;52.704;6.536;2024-02-04T00:52:01;19.48;;;5.30;;
58338;SDS011;68636;52.704;6.536;2024-02-04T00:54:27;20.83;;;5.37;;
58338;SDS011;68636;52.704;6.536;2024-02-04T00:56:54;22.80;;;4.80;;
58338;SDS011;68636;52.704;6.536;2024-02-04T00:59:20;18.73;;;4.53;;
58338;SDS011;68636;52.704;6.536;2024-02-04T01:01:46;15.93;;;4.93;;
58338;SDS011;68636;52.704;6.536;2024-02-04T01:04:12;15.80;;;4.68;;
58338;SDS011;68636;52.704;6.536;2024-02-04T01:06:38;16.00;;;4.30;;
58338;SDS011;68636;52.704;6.536;2024-02-04T01:09:05;21.05;;;4.40;;
58338;SDS011;68636;52.704;6.536;2024-02-04T01:11:31;15.88;;;4.10;;
58338;SDS011;68636;52.704;6.536;2024-02-04T01:13:57;18.95;;;3.50;;
58338;SDS011;68636;52.704;6.536;2024-02-04T01:16:23;15.70;;;3.17;;
58338;SDS011;68636;52.704;6.536;2024-02-04T01:18:49;14.45;;;3.40;;
58338;SDS011;68636;52.704;6.536;2024-02-04T01:21:15;12.50;;;2.95;;
58338;SDS011;68636;52.704;6.536;2024-02-04T01:23:41;13.32;;;2.83;;
58338;SDS011;68636;52.704;6.536;2024-02-04T01:26:07;12.25;;;2.50;;
58338;SDS011;68636;52.704;6.536;2024-02-04T01:28:33;15.35;;;2.30;;
58338;SDS011;68636;52.704;6.536;2024-02-04T01:31:00;10.73;;;2.30;;
58338;SDS011;68636;52.704;6.536;2024-02-04T01:33:26;13.63;;;2.38;;
58338;SDS011;68636;52.704;6.536;2024-02-04T01:35:52;11.43;;;2.30;;
58338;SDS011;68636;52.704;6.536;2024-02-04T01:38:18;9.18;;;1.80;;
58338;SDS011;68636;52.704;6.536;2024-02-04T01:40:45;9.98;;;1.70;;
58338;SDS011;68636;52.704;6.536;2024-02-04T01:43:11;11.45;;;1.83;;
58338;SDS011;68636;52.704;6.536;2024-02-04T01:45:37;9.52;;;2.17;;
58338;SDS011;68636;52.704;6.536;2024-02-04T01:48:04;14.05;;;2.38;;
58338;SDS011;68636;52.704;6.536;2024-02-04T01:50:30;12.30;;;2.47;;
58338;SDS011;68636;52.704;6.536;2024-02-04T01:52:56;6.90;;;2.23;;
58338;SDS011;68636;52.704;6.536;2024-02-04T01:55:23;10.70;;;2.55;;
58338;SDS011;68636;52.704;6.536;2024-02-04T01:57:49;14.63;;;3.25;;
58338;SDS011;68636;52.704;6.536;2024-02-04T02:00:15;12.57;;;3.00;;
58338;SDS011;68636;52.704;6.536;2024-02-04T02:02:43;12.15;;;2.60;;
58338;SDS011;68636;52.704;6.536;2024-02-04T02:05:11;12.55;;;3.88;;
58338;SDS011;68636;52.704;6.536;2024-02-04T02:07:38;14.55;;;3.75;;
58338;SDS011;68636;52.704;6.536;2024-02-04T02:10:04;11.95;;;4.10;;
58338;SDS011;68636;52.704;6.536;2024-02-04T02:12:37;14.80;;;4.38;;
58338;SDS011;68636;52.704;6.536;2024-02-04T02:15:08;17.25;;;6.18;;
58338;SDS011;68636;52.704;6.536;2024-02-04T02:17:38;21.50;;;6.50;;
58338;SDS011;68636;52.704;6.536;2024-02-04T02:20:15;22.08;;;6.53;;
58338;SDS011;68636;52.704;6.536;2024-02-04T02:23:06;19.63;;;6.03;;
58338;SDS011;68636;52.704;6.536;2024-02-04T02:25:33;17.77;;;5.72;;
58338;SDS011;68636;52.704;6.536;2024-02-04T02:28:00;17.10;;;5.97;;
58338;SDS011;68636;52.704;6.536;2024-02-04T02:30:26;17.48;;;5.97;;
58338;SDS011;68636;52.704;6.536;2024-02-04T02:32:52;19.05;;;6.28;;
58338;SDS011;68636;52.704;6.536;2024-02-04T02:35:18;18.98;;;5.93;;
58338;SDS011;68636;52.704;6.536;2024-02-04T02:40:26;21.10;;;6.25;;
58338;SDS011;68636;52.704;6.536;2024-02-04T02:42:55;12.40;;;5.35;;
58338;SDS011;68636;52.704;6.536;2024-02-04T02:45:23;18.52;;;6.15;;
58338;SDS011;68636;52.704;6.536;2024-02-04T02:47:50;16.33;;;4.95;;
58338;SDS011;68636;52.704;6.536;2024-02-04T02:50:17;13.40;;;4.45;;
58338;SDS011;68636;52.704;6.536;2024-02-04T02:52:43;12.10;;;4.72;;
58338;SDS011;68636;52.704;6.536;2024-02-04T02:55:10;18.33;;;4.10;;
58338;SDS011;68636;52.704;6.536;2024-02-04T02:57:36;14.50;;;4.65;;
58338;SDS011;68636;52.704;6.536;2024-02-04T03:00:02;13.85;;;4.07;;
58338;SDS011;68636;52.704;6.536;2024-02-04T03:02:31;11.70;;;3.33;;
58338;SDS011;68636;52.704;6.536;2024-02-04T03:04:57;13.75;;;3.75;;
58338;SDS011;68636;52.704;6.536;2024-02-04T03:07:23;12.20;;;3.40;;
58338;SDS011;68636;52.704;6.536;2024-02-04T03:09:49;18.23;;;4.20;;
58338;SDS011;68636;52.704;6.536;2024-02-04T03:12:15;13.52;;;3.15;;
58338;SDS011;68636;52.704;6.536;2024-02-04T03:14:41;12.60;;;3.08;;
58338;SDS011;68636;52.704;6.536;2024-02-04T03:17:07;11.88;;;3.00;;
58338;SDS011;68636;52.704;6.536;2024-02-04T03:19:33;12.18;;;3.10;;
58338;SDS011;68636;52.704;6.536;2024-02-04T03:21:59;13.10;;;2.60;;
58338;SDS011;68636;52.704;6.536;2024-02-04T03:24:25;10.48;;;2.75;;
58338;SDS011;68636;52.704;6.536;2024-02-04T03:26:51;13.85;;;2.70;;
58338;SDS011;68636;52.704;6.536;2024-02-04T03:29:17;12.40;;;2.72;;
58338;SDS011;68636;52.704;6.536;2024-02-04T03:31:43;12.07;;;2.88;;
58338;SDS011;68636;52.704;6.536;2024-02-04T03:34:10;9.38;;;2.42;;
58338;SDS011;68636;52.704;6.536;2024-02-04T03:36:36;14.65;;;2.88;;
58338;SDS011;68636;52.704;6.536;2024-02-04T03:39:03;12.68;;;2.28;;
58338;SDS011;68636;52.704;6.536;2024-02-04T03:41:29;10.80;;;2.20;;
58338;SDS011;68636;52.704;6.536;2024-02-04T03:43:55;9.75;;;2.00;;
58338;SDS011;68636;52.704;6.536;2024-02-04T03:46:21;9.98;;;1.60;;
58338;SDS011;68636;52.704;6.536;2024-02-04T03:48:48;14.52;;;1.67;;
58338;SDS011;68636;52.704;6.536;2024-02-04T03:51:17;10.48;;;1.58;;
58338;SDS011;68636;52.704;6.536;2024-02-04T03:53:44;10.18;;;1.60;;
58338;SDS011;68636;52.704;6.536;2024-02-04T03:56:10;9.57;;;1.20;;
58338;SDS011;68636;52.704;6.536;2024-02-04T03:58:36;9.32;;;1.20;;
58338;SDS011;68636;52.704;6.536;2024-02-04T04:01:02;11.00;;;1.10;;
58338;SDS011;68636;52.704;6.536;2024-02-04T04:03:29;16.75;;;1.50;;
58338;SDS011;68636;52.704;6.536;2024-02-04T04:05:55;6.68;;;1.10;;
58338;SDS011;68636;52.704;6.536;2024-02-04T04:08:21;10.43;;;1.30;;
58338;SDS011;68636;52.704;6.536;2024-02-04T04:10:47;4.97;;;0.82;;
58338;SDS011;68636;52.704;6.536;2024-02-04T04:13:13;6.70;;;1.10;;
58338;SDS011;68636;52.704;6.536;2024-02-04T04:15:40;9.10;;;0.98;;
58338;SDS011;68636;52.704;6.536;2024-02-04T04:18:07;7.38;;;0.73;;
58338;SDS011;68636;52.704;6.536;2024-02-04T04:20:33;6.82;;;0.85;;
58338;SDS011;68636;52.704;6.536;2024-02-04T04:22:59;10.20;;;0.85;;
58338;SDS011;68636;52.704;6.536;2024-02-04T04:25:25;8.95;;;0.82;;
58338;SDS011;68636;52.704;6.536;2024-02-04T04:27:51;11.77;;;0.90;;
58338;SDS011;68636;52.704;6.536;2024-02-04T04:30:17;8.45;;;1.15;;
58338;SDS011;68636;52.704;6.536;2024-02-04T04:32:43;9.10;;;0.80;;
58338;SDS011;68636;52.704;6.536;2024-02-04T04:35:09;10.43;;;1.10;;
58338;SDS011;68636;52.704;6.536;2024-02-04T04:37:36;5.15;;;1.05;;
58338;SDS011;68636;52.704;6.536;2024-02-04T04:40:02;13.05;;;1.38;;
58338;SDS011;68636;52.704;6.536;2024-02-04T04:42:28;10.23;;;0.80;;
58338;SDS011;68636;52.704;6.536;2024-02-04T04:44:54;9.60;;;1.20;;
58338;SDS011;68636;52.704;6.536;2024-02-04T04:47:20;11.02;;;1.08;;
58338;SDS011;68636;52.704;6.536;2024-02-04T04:49:46;9.82;;;1.13;;
58338;SDS011;68636;52.704;6.536;2024-02-04T04:52:12;8.57;;;0.80;;
58338;SDS011;68636;52.704;6.536;2024-02-04T04:54:39;14.63;;;1.20;;
58338;SDS011;68636;52.704;6.536;2024-02-04T04:57:05;5.60;;;0.82;;
58338;SDS011;68636;52.704;6.536;2024-02-04T04:59:31;10.93;;;1.33;;
58338;SDS011;68636;52.704;6.536;2024-02-04T05:01:57;9.63;;;0.98;;
58338;SDS011;68636;52.704;6.536;2024-02-04T05:04:23;8.52;;;0.88;;
58338;SDS011;68636;52.704;6.536;2024-02-04T05:06:50;7.20;;;1.13;;
58338;SDS011;68636;52.704;6.536;2024-02-04T05:09:16;13.90;;;1.10;;
58338;SDS011;68636;52.704;6.536;2024-02-04T05:11:43;10.05;;;1.20;;
58338;SDS011;68636;52.704;6.536;2024-02-04T05:14:09;10.10;;;0.88;;
58338;SDS011;68636;52.704;6.536;2024-02-04T05:16:35;6.85;;;1.10;;
58338;SDS011;68636;52.704;6.536;2024-02-04T05:19:02;11.07;;;0.82;;
58338;SDS011;68636;52.704;6.536;2024-02-04T05:21:28;6.97;;;1.35;;
58338;SDS011;68636;52.704;6.536;2024-02-04T05:23:54;9.30;;;1.20;;
58338;SDS011;68636;52.704;6.536;2024-02-04T05:26:20;9.93;;;0.70;;
58338;SDS011;68636;52.704;6.536;2024-02-04T05:28:46;5.82;;;0.60;;
58338;SDS011;68636;52.704;6.536;2024-02-04T05:31:12;12.85;;;1.02;;
58338;SDS011;68636;52.704;6.536;2024-02-04T05:33:39;6.93;;;0.85;;
58338;SDS011;68636;52.704;6.536;2024-02-04T05:36:05;13.70;;;0.90;;
58338;SDS011;68636;52.704;6.536;2024-02-04T05:38:31;10.15;;;0.60;;
58338;SDS011;68636;52.704;6.536;2024-02-04T05:40:57;9.52;;;0.73;;
58338;SDS011;68636;52.704;6.536;2024-02-04T05:43:23;10.48;;;0.60;;
58338;SDS011;68636;52.704;6.536;2024-02-04T05:45:49;6.82;;;0.82;;
58338;SDS011;68636;52.704;6.536;2024-02-04T05:48:15;6.70;;;0.68;;
58338;SDS011;68636;52.704;6.536;2024-02-04T05:50:41;7.68;;;0.65;;
58338;SDS011;68636;52.704;6.536;2024-02-04T05:53:09;7.38;;;0.88;;
58338;SDS011;68636;52.704;6.536;2024-02-04T05:55:35;8.73;;;0.63;;
58338;SDS011;68636;52.704;6.536;2024-02-04T05:58:01;9.63;;;0.70;;
58338;SDS011;68636;52.704;6.536;2024-02-04T06:00:27;6.03;;;0.70;;
58338;SDS011;68636;52.704;6.536;2024-02-04T06:02:53;8.52;;;0.73;;
58338;SDS011;68636;52.704;6.536;2024-02-04T06:05:19;7.03;;;0.77;;
58338;SDS011;68636;52.704;6.536;2024-02-04T06:07:45;7.63;;;0.63;;
58338;SDS011;68636;52.704;6.536;2024-02-04T06:10:11;12.25;;;0.82;;
58338;SDS011;68636;52.704;6.536;2024-02-04T06:12:37;9.43;;;0.77;;
58338;SDS011;68636;52.704;6.536;2024-02-04T06:15:06;9.27;;;0.60;;
58338;SDS011;68636;52.704;6.536;2024-02-04T06:17:37;8.40;;;1.17;;
58338;SDS011;68636;52.704;6.536;2024-02-04T06:20:04;8.45;;;0.80;;
58338;SDS011;68636;52.704;6.536;2024-02-04T06:22:30;12.90;;;1.60;;
58338;SDS011;68636;52.704;6.536;2024-02-04T06:24:57;11.33;;;0.90;;
58338;SDS011;68636;52.704;6.536;2024-02-04T06:27:23;7.82;;;0.60;;
58338;SDS011;68636;52.704;6.536;2024-02-04T06:29:49;6.13;;;0.63;;
58338;SDS011;68636;52.704;6.536;2024-02-04T06:32:16;7.95;;;1.45;;
58338;SDS011;68636;52.704;6.536;2024-02-04T06:34:46;10.60;;;1.25;;
58338;SDS011;68636;52.704;6.536;2024-02-04T06:37:12;6.03;;;0.70;;
58338;SDS011;68636;52.704;6.536;2024-02-04T06:39:38;10.45;;;0.95;;
58338;SDS011;68636;52.704;6.536;2024-02-04T06:42:04;7.55;;;0.80;;
58338;SDS011;68636;52.704;6.536;2024-02-04T06:44:31;9.68;;;0.90;;
58338;SDS011;68636;52.704;6.536;2024-02-04T06:46:57;8.15;;;0.60;;
58338;SDS011;68636;52.704;6.536;2024-02-04T06:49:23;11.35;;;0.93;;
58338;SDS011;68636;52.704;6.536;2024-02-04T06:51:49;11.98;;;0.88;;
58338;SDS011;68636;52.704;6.536;2024-02-04T06:54:17;11.25;;;1.13;;
58338;SDS011;68636;52.704;6.536;2024-02-04T06:56:46;10.18;;;1.17;;
58338;SDS011;68636;52.704;6.536;2024-02-04T06:59:12;8.77;;;0.88;;
58338;SDS011;68636;52.704;6.536;2024-02-04T07:01:41;10.15;;;1.02;;
58338;SDS011;68636;52.704;6.536;2024-02-04T07:04:07;11.85;;;0.82;;
58338;SDS011;68636;52.704;6.536;2024-02-04T07:06:34;10.80;;;0.77;;
58338;SDS011;68636;52.704;6.536;2024-02-04T07:09:00;10.85;;;0.65;;
58338;SDS011;68636;52.704;6.536;2024-02-04T07:11:26;13.40;;;1.30;;
58338;SDS011;68636;52.704;6.536;2024-02-04T07:13:52;13.23;;;1.03;;
58338;SDS011;68636;52.704;6.536;2024-02-04T07:16:26;7.88;;;0.77;;
58338;SDS011;68636;52.704;6.536;2024-02-04T07:18:54;10.02;;;0.70;;
58338;SDS011;68636;52.704;6.536;2024-02-04T07:21:20;11.50;;;1.33;;
58338;SDS011;68636;52.704;6.536;2024-02-04T07:23:47;8.60;;;0.90;;
58338;SDS011;68636;52.704;6.536;2024-02-04T07:26:13;11.95;;;1.30;;
58338;SDS011;68636;52.704;6.536;2024-02-04T07:28:39;6.85;;;0.75;;
58338;SDS011;68636;52.704;6.536;2024-02-04T07:31:05;11.77;;;0.93;;
58338;SDS011;68636;52.704;6.536;2024-02-04T07:33:31;15.73;;;1.00;;
58338;SDS011;68636;52.704;6.536;2024-02-04T07:35:57;13.93;;;0.90;;
58338;SDS011;68636;52.704;6.536;2024-02-04T07:38:23;8.45;;;0.80;;
58338;SDS011;68636;52.704;6.536;2024-02-04T07:40:49;6.95;;;0.63;;
58338;SDS011;68636;52.704;6.536;2024-02-04T07:43:16;11.32;;;0.80;;
58338;SDS011;68636;52.704;6.536;2024-02-04T07:45:42;12.88;;;1.23;;
58338;SDS011;68636;52.704;6.536;2024-02-04T07:48:08;7.30;;;1.15;;
58338;SDS011;68636;52.704;6.536;2024-02-04T07:50:35;7.43;;;1.20;;
58338;SDS011;68636;52.704;6.536;2024-02-04T07:53:02;15.40;;;0.95;;
58338;SDS011;68636;52.704;6.536;2024-02-04T07:55:28;8.65;;;0.88;;
58338;SDS011;68636;52.704;6.536;2024-02-04T07:57:54;8.13;;;0.63;;
58338;SDS011;68636;52.704;6.536;2024-02-04T08:00:20;11.80;;;0.88;;
58338;SDS011;68636;52.704;6.536;2024-02-04T08:02:47;10.45;;;1.10;;
58338;SDS011;68636;52.704;6.536;2024-02-04T08:05:13;8.60;;;1.20;;
58338;SDS011;68636;52.704;6.536;2024-02-04T08:07:39;9.85;;;1.38;;
58338;SDS011;68636;52.704;6.536;2024-02-04T08:10:08;12.27;;;1.45;;
58338;SDS011;68636;52.704;6.536;2024-02-04T08:12:35;8.93;;;1.02;;
58338;SDS011;68636;52.704;6.536;2024-02-04T08:15:04;8.55;;;0.90;;
58338;SDS011;68636;52.704;6.536;2024-02-04T08:17:30;12.48;;;1.20;;
58338;SDS011;68636;52.704;6.536;2024-02-04T08:19:57;7.97;;;0.80;;
58338;SDS011;68636;52.704;6.536;2024-02-04T08:22:23;15.32;;;1.52;;
58338;SDS011;68636;52.704;6.536;2024-02-04T08:24:49;12.68;;;1.27;;
58338;SDS011;68636;52.704;6.536;2024-02-04T08:27:16;10.52;;;0.90;;
58338;SDS011;68636;52.704;6.536;2024-02-04T08:29:43;8.07;;;1.15;;
58338;SDS011;68636;52.704;6.536;2024-02-04T08:32:09;7.30;;;1.40;;
58338;SDS011;68636;52.704;6.536;2024-02-04T08:34:38;8.35;;;0.80;;
58338;SDS011;68636;52.704;6.536;2024-02-04T08:37:04;8.23;;;0.80;;
58338;SDS011;68636;52.704;6.536;2024-02-04T08:39:30;6.38;;;0.77;;
58338;SDS011;68636;52.704;6.536;2024-02-04T08:41:56;7.22;;;1.13;;
58338;SDS011;68636;52.704;6.536;2024-02-04T08:44:22;6.63;;;1.00;;
58338;SDS011;68636;52.704;6.536;2024-02-04T08:46:48;5.88;;;1.00;;
58338;SDS011;68636;52.704;6.536;2024-02-04T08:49:14;4.35;;;0.70;;
58338;SDS011;68636;52.704;6.536;2024-02-04T08:51:41;9.30;;;1.08;;
58338;SDS011;68636;52.704;6.536;2024-02-04T08:54:07;7.68;;;0.80;;
58338;SDS011;68636;52.704;6.536;2024-02-04T08:56:33;6.60;;;0.82;;
58338;SDS011;68636;52.704;6.536;2024-02-04T08:58:59;7.25;;;0.80;;
58338;SDS011;68636;52.704;6.536;2024-02-04T09:01:32;6.97;;;1.00;;
58338;SDS011;68636;52.704;6.536;2024-02-04T09:03:58;6.10;;;0.88;;
58338;SDS011;68636;52.704;6.536;2024-02-04T09:06:25;6.28;;;0.88;;
58338;SDS011;68636;52.704;6.536;2024-02-04T09:08:51;4.35;;;0.70;;
58338;SDS011;68636;52.704;6.536;2024-02-04T09:11:17;5.53;;;0.60;;
58338;SDS011;68636;52.704;6.536;2024-02-04T09:13:46;8.23;;;0.63;;
58338;SDS011;68636;52.704;6.536;2024-02-04T09:16:13;6.45;;;0.70;;
58338;SDS011;68636;52.704;6.536;2024-02-04T09:18:39;4.30;;;0.73;;
58338;SDS011;68636;52.704;6.536;2024-02-04T09:21:05;4.47;;;0.70;;
58338;SDS011;68636;52.704;6.536;2024-02-04T09:23:32;5.75;;;0.50;;
58338;SDS011;68636;52.704;6.536;2024-02-04T09:25:58;4.53;;;0.60;;
58338;SDS011;68636;52.704;6.536;2024-02-04T09:28:24;5.22;;;0.60;;
58338;SDS011;68636;52.704;6.536;2024-02-04T09:30:50;3.60;;;0.57;;
58338;SDS011;68636;52.704;6.536;2024-02-04T09:33:16;9.00;;;1.77;;
58338;SDS011;68636;52.704;6.536;2024-02-04T09:35:42;5.35;;;0.70;;
58338;SDS011;68636;52.704;6.536;2024-02-04T09:38:09;6.30;;;0.88;;
58338;SDS011;68636;52.704;6.536;2024-02-04T09:40:35;7.05;;;0.93;;
58338;SDS011;68636;52.704;6.536;2024-02-04T09:43:01;6.38;;;0.60;;
58338;SDS011;68636;52.704;6.536;2024-02-04T09:45:27;3.60;;;0.63;;
58338;SDS011;68636;52.704;6.536;2024-02-04T09:47:55;3.67;;;0.80;;
58338;SDS011;68636;52.704;6.536;2024-02-04T09:50:21;6.00;;;0.70;;
58338;SDS011;68636;52.704;6.536;2024-02-04T09:52:50;3.67;;;0.65;;
58338;SDS011;68636;52.704;6.536;2024-02-04T09:55:19;7.38;;;0.90;;
58338;SDS011;68636;52.704;6.536;2024-02-04T09:57:49;7.38;;;0.90;;
58338;SDS011;68636;52.704;6.536;2024-02-04T10:00:15;8.57;;;0.90;;
58338;SDS011;68636;52.704;6.536;2024-02-04T10:02:44;3.92;;;0.82;;
58338;SDS011;68636;52.704;6.536;2024-02-04T10:05:10;5.80;;;1.15;;
58338;SDS011;68636;52.704;6.536;2024-02-04T10:07:36;7.80;;;1.10;;
58338;SDS011;68636;52.704;6.536;2024-02-04T10:10:03;5.55;;;1.10;;
58338;SDS011;68636;52.704;6.536;2024-02-04T10:12:29;4.63;;;1.20;;
58338;SDS011;68636;52.704;6.536;2024-02-04T10:14:56;6.22;;;1.08;;
58338;SDS011;68636;52.704;6.536;2024-02-04T10:17:22;7.18;;;1.40;;
58338;SDS011;68636;52.704;6.536;2024-02-04T10:19:48;6.60;;;1.17;;
58338;SDS011;68636;52.704;6.536;2024-02-04T10:22:14;8.20;;;1.40;;
58338;SDS011;68636;52.704;6.536;2024-02-04T10:24:42;5.82;;;1.20;;
58338;SDS011;68636;52.704;6.536;2024-02-04T10:27:12;7.55;;;1.23;;
58338;SDS011;68636;52.704;6.536;2024-02-04T10:29:38;6.70;;;1.20;;
58338;SDS011;68636;52.704;6.536;2024-02-04T10:32:04;7.38;;;1.10;;
58338;SDS011;68636;52.704;6.536;2024-02-04T10:34:30;3.42;;;0.70;;
58338;SDS011;68636;52.704;6.536;2024-02-04T10:36:56;6.50;;;1.00;;
58338;SDS011;68636;52.704;6.536;2024-02-04T10:39:22;6.63;;;1.05;;
58338;SDS011;68636;52.704;6.536;2024-02-04T10:41:49;3.47;;;0.80;;
58338;SDS011;68636;52.704;6.536;2024-02-04T10:44:17;4.78;;;0.70;;
58338;SDS011;68636;52.704;6.536;2024-02-04T10:46:44;6.10;;;1.00;;
58338;SDS011;68636;52.704;6.536;2024-02-04T10:49:13;2.97;;;1.00;;
58338;SDS011;68636;52.704;6.536;2024-02-04T10:51:39;5.38;;;0.90;;
58338;SDS011;68636;52.704;6.536;2024-02-04T10:54:06;5.15;;;1.17;;
58338;SDS011;68636;52.704;6.536;2024-02-04T10:56:36;5.90;;;1.13;;
58338;SDS011;68636;52.704;6.536;2024-02-04T10:59:03;4.50;;;1.40;;
58338;SDS011;68636;52.704;6.536;2024-02-04T11:01:29;9.85;;;1.63;;
58338;SDS011;68636;52.704;6.536;2024-02-04T11:06:23;4.23;;;1.30;;
58338;SDS011;68636;52.704;6.536;2024-02-04T11:08:52;6.68;;;1.63;;
58338;SDS011;68636;52.704;6.536;2024-02-04T11:11:19;8.23;;;2.10;;
58338;SDS011;68636;52.704;6.536;2024-02-04T11:13:49;7.45;;;2.42;;
58338;SDS011;68636;52.704;6.536;2024-02-04T11:16:40;7.30;;;1.98;;
58338;SDS011;68636;52.704;6.536;2024-02-04T11:24:29;4.63;;;1.60;;
58338;SDS011;68636;52.704;6.536;2024-02-04T11:26:58;7.93;;;1.33;;
58338;SDS011;68636;52.704;6.536;2024-02-04T11:29:24;5.78;;;1.50;;
58338;SDS011;68636;52.704;6.536;2024-02-04T11:31:50;4.10;;;1.50;;
58338;SDS011;68636;52.704;6.536;2024-02-04T11:34:17;6.20;;;1.73;;
58338;SDS011;68636;52.704;6.536;2024-02-04T11:36:43;4.47;;;1.20;;
58338;SDS011;68636;52.704;6.536;2024-02-04T11:39:13;5.30;;;1.20;;
58338;SDS011;68636;52.704;6.536;2024-02-04T11:41:45;6.60;;;1.10;;
58338;SDS011;68636;52.704;6.536;2024-02-04T11:44:12;4.88;;;1.25;;
58338;SDS011;68636;52.704;6.536;2024-02-04T11:46:38;6.68;;;1.50;;
58338;SDS011;68636;52.704;6.536;2024-02-04T11:49:13;4.97;;;1.40;;
58338;SDS011;68636;52.704;6.536;2024-02-04T11:51:40;7.28;;;1.40;;
58338;SDS011;68636;52.704;6.536;2024-02-04T11:54:07;6.03;;;1.33;;
58338;SDS011;68636;52.704;6.536;2024-02-04T11:56:33;8.18;;;2.08;;
58338;SDS011;68636;52.704;6.536;2024-02-04T11:59:01;7.72;;;0.98;;
58338;SDS011;68636;52.704;6.536;2024-02-04T12:01:30;6.75;;;1.55;;
58338;SDS011;68636;52.704;6.536;2024-02-04T12:04:08;5.60;;;1.40;;
58338;SDS011;68636;52.704;6.536;2024-02-04T12:06:34;5.53;;;0.85;;
58338;SDS011;68636;52.704;6.536;2024-02-04T12:09:01;8.38;;;0.88;;
58338;SDS011;68636;52.704;6.536;2024-02-04T12:11:29;5.93;;;1.10;;
58338;SDS011;68636;52.704;6.536;2024-02-04T12:14:03;3.72;;;0.80;;
58338;SDS011;68636;52.704;6.536;2024-02-04T12:16:31;3.17;;;0.50;;
58338;SDS011;68636;52.704;6.536;2024-02-04T12:19:01;4.45;;;0.70;;
58338;SDS011;68636;52.704;6.536;2024-02-04T12:21:31;5.70;;;0.52;;
58338;SDS011;68636;52.704;6.536;2024-02-04T12:23:58;4.63;;;0.47;;
58338;SDS011;68636;52.704;6.536;2024-02-04T12:26:24;4.45;;;0.50;;
58338;SDS011;68636;52.704;6.536;2024-02-04T12:31:18;3.83;;;0.53;;
58338;SDS011;68636;52.704;6.536;2024-02-04T12:33:54;6.40;;;0.52;;
58338;SDS011;68636;52.704;6.536;2024-02-04T12:36:23;4.07;;;0.90;;
58338;SDS011;68636;52.704;6.536;2024-02-04T12:38:50;7.55;;;0.50;;
58338;SDS011;68636;52.704;6.536;2024-02-04T12:41:16;4.38;;;0.50;;
58338;SDS011;68636;52.704;6.536;2024-02-04T12:43:45;4.82;;;0.60;;
58338;SDS011;68636;52.704;6.536;2024-02-04T12:46:13;4.88;;;0.40;;
58338;SDS011;68636;52.704;6.536;2024-02-04T12:48:39;2.75;;;0.28;;
58338;SDS011;68636;52.704;6.536;2024-02-04T12:51:05;4.38;;;0.38;;
58338;SDS011;68636;52.704;6.536;2024-02-04T12:53:31;5.93;;;0.50;;
58338;SDS011;68636;52.704;6.536;2024-02-04T12:55:58;2.63;;;0.40;;
58338;SDS011;68636;52.704;6.536;2024-02-04T12:58:25;6.78;;;0.70;;
58338;SDS011;68636;52.704;6.536;2024-02-04T13:00:59;2.10;;;0.40;;
58338;SDS011;68636;52.704;6.536;2024-02-04T13:03:30;6.30;;;0.68;;
58338;SDS011;68636;52.704;6.536;2024-02-04T13:05:59;6.53;;;0.60;;
58338;SDS011;68636;52.704;6.536;2024-02-04T13:08:25;5.05;;;0.52;;
58338;SDS011;68636;52.704;6.536;2024-02-04T13:10:54;5.95;;;0.50;;
58338;SDS011;68636;52.704;6.536;2024-02-04T13:13:21;6.93;;;0.40;;
58338;SDS011;68636;52.704;6.536;2024-02-04T13:15:47;5.28;;;0.57;;
58338;SDS011;68636;52.704;6.536;2024-02-04T13:18:13;4.10;;;0.70;;
58338;SDS011;68636;52.704;6.536;2024-02-04T13:20:42;3.35;;;0.40;;
58338;SDS011;68636;52.704;6.536;2024-02-04T13:23:10;4.15;;;0.50;;
58338;SDS011;68636;52.704;6.536;2024-02-04T13:25:36;4.95;;;0.60;;
58338;SDS011;68636;52.704;6.536;2024-02-04T13:28:03;3.63;;;0.63;;
58338;SDS011;68636;52.704;6.536;2024-02-04T13:30:29;6.15;;;0.80;;
58338;SDS011;68636;52.704;6.536;2024-02-04T13:32:55;6.25;;;0.90;;
58338;SDS011;68636;52.704;6.536;2024-02-04T13:35:22;4.78;;;0.40;;
58338;SDS011;68636;52.704;6.536;2024-02-04T13:37:49;7.30;;;0.50;;
58338;SDS011;68636;52.704;6.536;2024-02-04T13:40:20;4.15;;;0.40;;
58338;SDS011;68636;52.704;6.536;2024-02-04T13:42:46;3.25;;;0.43;;
58338;SDS011;68636;52.704;6.536;2024-02-04T13:45:12;2.42;;;0.30;;
58338;SDS011;68636;52.704;6.536;2024-02-04T13:47:42;3.97;;;0.40;;
58338;SDS011;68636;52.704;6.536;2024-02-04T13:50:09;2.80;;;0.40;;
58338;SDS011;68636;52.704;6.536;2024-02-04T13:52:35;4.07;;;0.50;;
58338;SDS011;68636;52.704;6.536;2024-02-04T13:55:01;4.78;;;0.60;;
58338;SDS011;68636;52.704;6.536;2024-02-04T13:57:30;4.32;;;0.45;;
58338;SDS011;68636;52.704;6.536;2024-02-04T13:59:56;6.07;;;0.57;;
58338;SDS011;68636;52.704;6.536;2024-02-04T14:02:22;5.57;;;0.40;;
58338;SDS011;68636;52.704;6.536;2024-02-04T14:04:51;5.13;;;0.40;;
58338;SDS011;68636;52.704;6.536;2024-02-04T14:07:18;4.32;;;0.43;;
58338;SDS011;68636;52.704;6.536;2024-02-04T14:09:44;8.05;;;0.85;;
58338;SDS011;68636;52.704;6.536;2024-02-04T14:12:11;6.47;;;0.60;;
58338;SDS011;68636;52.704;6.536;2024-02-04T14:14:38;6.30;;;0.65;;
58338;SDS011;68636;52.704;6.536;2024-02-04T14:17:04;3.95;;;0.43;;
58338;SDS011;68636;52.704;6.536;2024-02-04T14:19:30;3.87;;;0.60;;
58338;SDS011;68636;52.704;6.536;2024-02-04T14:21:57;5.05;;;0.80;;
58338;SDS011;68636;52.704;6.536;2024-02-04T14:24:23;6.45;;;0.55;;
58338;SDS011;68636;52.704;6.536;2024-02-04T14:26:55;4.72;;;0.75;;
58338;SDS011;68636;52.704;6.536;2024-02-04T14:29:21;5.88;;;0.73;;
58338;SDS011;68636;52.704;6.536;2024-02-04T14:31:47;2.95;;;0.63;;
58338;SDS011;68636;52.704;6.536;2024-02-04T14:34:13;7.72;;;0.82;;
58338;SDS011;68636;52.704;6.536;2024-02-04T14:36:40;5.45;;;0.52;;
58338;SDS011;68636;52.704;6.536;2024-02-04T14:39:06;4.78;;;0.50;;
58338;SDS011;68636;52.704;6.536;2024-02-04T14:41:36;4.45;;;0.40;;
58338;SDS011;68636;52.704;6.536;2024-02-04T14:44:02;4.15;;;0.40;;
58338;SDS011;68636;52.704;6.536;2024-02-04T14:46:28;3.78;;;0.60;;
58338;SDS011;68636;52.704;6.536;2024-02-04T14:48:55;4.18;;;0.50;;
58338;SDS011;68636;52.704;6.536;2024-02-04T14:51:21;5.65;;;0.68;;
58338;SDS011;68636;52.704;6.536;2024-02-04T14:53:47;6.65;;;0.50;;